Terminal Aerodrome Forecast
Issued by NWS

Home | Current Version | Previous Version | Text Only | Print | Product List | Glossary On
Versions: 1 2 3 4 5 6 7 8 9 10 11 12 13 14 15 16 17 18 19 20 21 22 23 24 25 26 27 28 29 30 31 32 33 34 35 36 37 38 39 40
000
FTUS45 KGJT 220620 AAA
TAFTEX
TAF AMD
KTEX 220620Z 2206/2306 30015G30KT P6SM VCSH BKN010 OVC015
      TEMPO 2206/2210 32020G40KT
     FM221000 27008KT 1/2SM -SN FZFG OVC008 WS020/32035KT
     FM221800 28010KT 3SM -SN BR SCT009 OVC015 WS020/32035KT
     FM230300 29008KT P6SM VCSH SCT015 OVC030=

USA.gov is the U.S. government's official web portal to all federal, state and local government web resources and services.